createdAt,value
2022-07-29T00:00:58.054Z,64.44
2022-07-29T00:03:24.813Z,65.10
2022-07-29T00:05:54.231Z,65.04
2022-07-29T00:08:21.133Z,65.49
2022-07-29T00:10:47.993Z,66.09
2022-07-29T00:13:14.759Z,66.41
2022-07-29T00:15:41.443Z,66.93
2022-07-29T00:18:08.245Z,67.08
2022-07-29T00:20:34.890Z,66.50
2022-07-29T00:23:01.556Z,66.91
2022-07-29T00:25:28.289Z,67.32
2022-07-29T00:27:54.974Z,67.37
2022-07-29T00:30:21.643Z,67.62
2022-07-29T00:32:48.306Z,67.53
2022-07-29T00:35:33.640Z,67.62
2022-07-29T00:38:00.554Z,67.82
2022-07-29T00:40:28.801Z,67.78
2022-07-29T00:42:55.463Z,67.87
2022-07-29T00:45:23.284Z,67.91
2022-07-29T00:47:50.039Z,67.80
2022-07-29T00:50:16.841Z,67.84
2022-07-29T00:52:43.619Z,67.80
2022-07-29T00:55:20.066Z,67.89
2022-07-29T00:57:46.676Z,68.19
2022-07-29T01:00:19.076Z,68.67
2022-07-29T01:02:48.433Z,68.80
2022-07-29T01:05:15.483Z,68.54
2022-07-29T01:07:42.173Z,68.42
2022-07-29T01:10:10.546Z,68.22
2022-07-29T01:12:38.081Z,68.45
2022-07-29T01:15:05.931Z,67.74
2022-07-29T01:17:57.238Z,67.93
2022-07-29T01:20:42.445Z,67.91
2022-07-29T01:23:30.926Z,67.62
2022-07-29T01:26:20.273Z,67.59
2022-07-29T01:28:57.663Z,67.99
2022-07-29T01:31:29.406Z,67.94
2022-07-29T01:34:00.258Z,67.87
2022-07-29T01:36:36.696Z,67.94
2022-07-29T01:39:18.270Z,67.93
2022-07-29T01:42:13.357Z,68.28
2022-07-29T01:44:49.703Z,68.42
2022-07-29T01:47:18.815Z,68.66
2022-07-29T01:49:48.989Z,68.98
2022-07-29T01:52:21.572Z,69.29
2022-07-29T01:54:52.271Z,69.32
2022-07-29T01:57:19.483Z,69.20
2022-07-29T01:59:46.555Z,69.30
2022-07-29T02:02:13.340Z,69.70
2022-07-29T02:04:40.103Z,70.37
2022-07-29T02:07:07.784Z,70.02
2022-07-29T02:09:39.457Z,70.14
2022-07-29T02:12:06.316Z,70.37
2022-07-29T02:14:37.085Z,70.93
2022-07-29T02:17:03.880Z,70.97
2022-07-29T02:19:30.898Z,71.25
2022-07-29T02:21:57.578Z,71.20
2022-07-29T02:24:24.732Z,70.83
2022-07-29T02:26:52.165Z,71.05
2022-07-29T02:29:20.678Z,71.23
2022-07-29T02:31:48.286Z,71.40
2022-07-29T02:34:15.435Z,71.55
2022-07-29T02:36:46.743Z,71.21
2022-07-29T02:39:16.443Z,71.20
2022-07-29T02:41:49.170Z,71.25
2022-07-29T02:44:18.251Z,71.33
2022-07-29T02:47:03.633Z,71.60
2022-07-29T02:49:37.771Z,71.29
2022-07-29T02:52:41.410Z,71.32
2022-07-29T02:55:30.902Z,71.26
2022-07-29T02:58:06.889Z,71.63
2022-07-29T03:00:35.779Z,71.92
2022-07-29T03:03:04.778Z,71.84
2022-07-29T03:05:31.588Z,71.93
2022-07-29T03:08:02.350Z,72.30
2022-07-29T03:10:29.032Z,72.44
2022-07-29T03:12:56.392Z,72.42
2022-07-29T03:15:23.050Z,72.65
2022-07-29T03:17:52.107Z,72.74
2022-07-29T03:20:18.776Z,72.64
2022-07-29T03:22:47.781Z,72.42
2022-07-29T03:25:15.636Z,72.44
2022-07-29T03:27:42.642Z,72.62
2022-07-29T03:30:09.841Z,72.57
2022-07-29T03:32:36.558Z,72.84
2022-07-29T03:35:03.722Z,72.79
2022-07-29T03:37:31.581Z,72.91
2022-07-29T03:39:59.037Z,72.64
2022-07-29T03:42:32.399Z,73.46
2022-07-29T03:45:03.318Z,73.16
2022-07-29T03:47:36.857Z,73.51
2022-07-29T03:50:16.802Z,73.36
2022-07-29T03:52:43.703Z,73.23
2022-07-29T03:55:12.125Z,73.03
2022-07-29T03:57:38.851Z,73.21
2022-07-29T04:00:06.641Z,73.29
2022-07-29T04:02:33.640Z,73.13
2022-07-29T04:05:00.489Z,73.29
2022-07-29T04:07:27.087Z,73.01
2022-07-29T04:09:53.717Z,72.90
2022-07-29T04:12:22.069Z,73.02
2022-07-29T04:14:48.694Z,72.90
2022-07-29T04:17:15.319Z,72.86
2022-07-29T04:19:41.960Z,72.47
2022-07-29T04:22:08.575Z,72.41
2022-07-29T04:24:35.617Z,72.46
2022-07-29T04:27:02.273Z,72.00
2022-07-29T04:29:29.014Z,71.98
2022-07-29T04:31:55.681Z,71.75
2022-07-29T04:34:22.376Z,71.77
2022-07-29T04:36:49.127Z,71.46
2022-07-29T04:39:20.633Z,71.48
2022-07-29T04:41:50.321Z,71.38
2022-07-29T04:44:17.415Z,71.16
2022-07-29T04:46:45.693Z,71.15
2022-07-29T04:49:12.491Z,70.62
2022-07-29T04:51:39.178Z,70.56
2022-07-29T04:54:05.859Z,70.66
2022-07-29T04:56:32.547Z,70.70
2022-07-29T04:58:59.219Z,70.86
2022-07-29T05:01:28.970Z,70.24
2022-07-29T05:04:00.129Z,70.26
2022-07-29T05:06:27.187Z,70.04
2022-07-29T05:08:54.018Z,69.84
2022-07-29T05:11:22.469Z,70.01
2022-07-29T05:13:51.008Z,70.03
2022-07-29T05:16:17.708Z,70.10
2022-07-29T05:18:44.506Z,69.36
2022-07-29T05:21:11.098Z,69.12
2022-07-29T05:23:37.705Z,69.14
2022-07-29T05:26:04.414Z,68.81
2022-07-29T05:28:34.954Z,68.75
2022-07-29T05:31:01.847Z,67.73
2022-07-29T05:33:35.544Z,67.37
2022-07-29T05:36:08.067Z,65.81
2022-07-29T05:38:35.835Z,62.90
2022-07-29T05:41:02.458Z,60.09
2022-07-29T05:43:29.349Z,56.69
2022-07-29T05:45:56.127Z,51.34
2022-07-29T05:48:22.782Z,47.47
2022-07-29T05:50:49.365Z,43.38
2022-07-29T05:53:19.156Z,40.91
2022-07-29T05:55:47.632Z,39.19
2022-07-29T05:58:14.404Z,37.64
2022-07-29T06:00:41.119Z,36.56
2022-07-29T06:03:07.761Z,36.74
2022-07-29T06:05:35.477Z,36.33
2022-07-29T06:08:02.349Z,34.85
2022-07-29T06:10:29.229Z,35.51
2022-07-29T06:12:55.924Z,36.39
2022-07-29T06:15:22.557Z,36.68
2022-07-29T06:18:00.702Z,38.31
2022-07-29T06:20:32.681Z,39.29
2022-07-29T06:22:59.829Z,40.51
2022-07-29T06:25:27.114Z,41.28
2022-07-29T06:27:53.983Z,41.90
2022-07-29T06:30:20.720Z,42.81
2022-07-29T06:32:48.096Z,42.16
2022-07-29T06:35:39.385Z,40.36
2022-07-29T06:38:01.929Z,39.56
2022-07-29T06:40:47.250Z,38.34
2022-07-29T06:43:14.541Z,37.11
2022-07-29T06:45:42.593Z,35.14
2022-07-29T06:48:10.424Z,34.48
2022-07-29T06:50:37.122Z,33.66
2022-07-29T06:53:04.039Z,33.30
2022-07-29T06:55:30.911Z,33.41
2022-07-29T06:57:57.543Z,33.11
2022-07-29T07:00:24.243Z,33.11
2022-07-29T07:02:50.997Z,32.61
2022-07-29T07:05:17.653Z,31.93
2022-07-29T07:07:44.264Z,31.75
2022-07-29T07:10:10.999Z,31.88
2022-07-29T07:12:37.925Z,31.29
2022-07-29T07:15:05.298Z,30.96
2022-07-29T07:17:32.079Z,29.79
2022-07-29T07:19:58.691Z,29.56
2022-07-29T07:22:25.349Z,29.45
2022-07-29T07:24:52.529Z,29.59
2022-07-29T07:27:19.153Z,30.42
2022-07-29T07:29:45.940Z,31.16
2022-07-29T07:32:14.230Z,32.43
2022-07-29T07:34:40.973Z,32.88
2022-07-29T07:37:07.685Z,33.51
2022-07-29T07:39:34.417Z,34.67
2022-07-29T07:42:01.065Z,36.03
2022-07-29T07:44:27.747Z,36.47
2022-07-29T07:46:54.691Z,37.33
2022-07-29T07:49:21.639Z,38.86
2022-07-29T07:51:50.633Z,39.16
2022-07-29T07:54:20.568Z,40.07
2022-07-29T07:56:50.825Z,41.22
2022-07-29T07:59:20.279Z,41.81
2022-07-29T08:01:48.121Z,42.30
2022-07-29T08:04:27.586Z,42.39
2022-07-29T08:06:57.752Z,43.10
2022-07-29T08:09:29.846Z,43.07
2022-07-29T08:11:57.714Z,43.40
2022-07-29T08:14:24.355Z,43.84
2022-07-29T08:16:51.934Z,44.77
2022-07-29T08:19:18.665Z,44.53
2022-07-29T08:21:45.426Z,44.52
2022-07-29T08:24:30.641Z,44.75
2022-07-29T08:26:57.332Z,44.75
2022-07-29T08:29:23.965Z,45.60
2022-07-29T08:31:51.022Z,45.20
2022-07-29T08:34:17.876Z,45.20
2022-07-29T08:36:44.492Z,44.89
2022-07-29T08:39:16.854Z,45.74
2022-07-29T08:41:56.880Z,44.82
2022-07-29T08:44:29.598Z,45.34
2022-07-29T08:46:57.888Z,44.57
2022-07-29T08:49:24.590Z,43.85
2022-07-29T08:51:51.255Z,43.40
2022-07-29T08:54:18.604Z,43.36
2022-07-29T08:59:31.397Z,43.62
2022-07-29T09:01:58.927Z,43.54
2022-07-29T09:04:25.988Z,42.81
2022-07-29T09:06:53.047Z,43.72
2022-07-29T09:09:19.809Z,42.52
2022-07-29T09:11:46.460Z,43.33
2022-07-29T09:14:14.440Z,43.29
2022-07-29T09:16:53.072Z,42.35
2022-07-29T09:19:30.525Z,42.27
2022-07-29T09:22:04.246Z,41.75
2022-07-29T09:24:44.785Z,42.54
2022-07-29T09:27:12.270Z,42.87
2022-07-29T09:29:39.407Z,43.09
2022-07-29T09:32:08.158Z,42.52
2022-07-29T09:34:34.941Z,42.59
2022-07-29T09:37:01.617Z,42.27
2022-07-29T09:39:39.084Z,41.03
2022-07-29T09:42:06.831Z,41.92
2022-07-29T09:44:44.170Z,41.77
2022-07-29T09:47:10.865Z,43.12
2022-07-29T09:49:59.348Z,41.09
2022-07-29T09:52:26.968Z,40.99
2022-07-29T09:54:55.108Z,41.63
2022-07-29T09:57:31.092Z,42.82
2022-07-29T10:00:07.782Z,41.05
2022-07-29T10:02:47.129Z,41.07
2022-07-29T10:05:36.064Z,40.51
2022-07-29T10:08:03.790Z,40.46
2022-07-29T10:10:37.698Z,41.26
2022-07-29T10:13:09.810Z,42.87
2022-07-29T10:15:41.831Z,42.60
2022-07-29T10:18:09.171Z,41.89
2022-07-29T10:20:35.952Z,42.33
2022-07-29T10:23:02.618Z,42.02
2022-07-29T10:25:29.299Z,40.88
2022-07-29T10:28:01.997Z,39.24
2022-07-29T10:30:28.745Z,40.33
2022-07-29T10:33:08.080Z,40.55
2022-07-29T10:35:47.415Z,41.00
2022-07-29T10:38:26.243Z,40.02
2022-07-29T10:41:28.989Z,39.35
2022-07-29T10:44:11.365Z,38.41
2022-07-29T10:46:44.039Z,38.18
2022-07-29T10:49:18.169Z,38.69
2022-07-29T10:51:54.375Z,38.25
2022-07-29T10:54:48.731Z,38.71
2022-07-29T10:57:25.899Z,39.23
2022-07-29T11:00:09.992Z,39.19
2022-07-29T11:02:46.666Z,40.09
2022-07-29T11:05:14.903Z,40.67
2022-07-29T11:08:28.171Z,40.37
2022-07-29T11:11:20.416Z,39.00
2022-07-29T11:13:54.186Z,37.92
2022-07-29T11:16:25.271Z,38.74
2022-07-29T11:19:14.543Z,37.76
2022-07-29T11:28:22.868Z,39.30
2022-07-29T11:30:52.741Z,39.57
2022-07-29T11:33:54.413Z,39.98
2022-07-29T11:36:19.750Z,40.34
2022-07-29T11:42:35.560Z,42.30
2022-07-29T11:45:44.412Z,42.42
2022-07-29T11:48:03.640Z,43.11
2022-07-29T11:50:45.876Z,43.96
2022-07-29T11:53:14.992Z,44.68
2022-07-29T11:55:51.541Z,45.02
2022-07-29T11:58:25.005Z,45.06
2022-07-29T12:00:56.332Z,45.46
2022-07-29T12:03:34.202Z,46.03
2022-07-29T12:06:21.075Z,45.11
2022-07-29T12:07:02.754Z,39.11
2022-07-29T12:08:48.068Z,44.97
2022-07-29T12:11:23.463Z,45.54
2022-07-29T12:13:53.718Z,45.65
2022-07-29T12:16:26.103Z,46.09
2022-07-29T12:19:03.750Z,45.42
2022-07-29T12:21:31.301Z,45.99
2022-07-29T12:24:04.842Z,46.41
2022-07-29T12:26:35.915Z,46.90
2022-07-29T12:29:03.338Z,47.81
2022-07-29T12:31:42.861Z,48.03
2022-07-29T12:34:15.260Z,48.54
2022-07-29T12:36:42.693Z,47.52
2022-07-29T12:39:10.256Z,47.53
2022-07-29T12:41:37.111Z,47.07
2022-07-29T12:44:04.225Z,47.21
2022-07-29T12:46:30.926Z,47.40
2022-07-29T12:48:58.325Z,47.04
2022-07-29T12:51:34.067Z,47.34
2022-07-29T12:54:24.558Z,47.06
2022-07-29T12:56:59.650Z,46.56
2022-07-29T12:59:26.313Z,46.78
2022-07-29T13:01:53.190Z,46.94
2022-07-29T13:04:33.225Z,47.09
2022-07-29T13:07:10.528Z,46.75
2022-07-29T13:09:46.846Z,46.61
2022-07-29T13:12:14.058Z,46.10
2022-07-29T13:14:45.563Z,46.75
2022-07-29T13:17:24.698Z,45.96
2022-07-29T13:20:05.092Z,44.86
2022-07-29T13:22:35.740Z,45.10
2022-07-29T13:25:05.316Z,44.87
2022-07-29T13:27:33.319Z,45.45
2022-07-29T13:30:01.016Z,45.62
2022-07-29T13:32:29.077Z,43.24
2022-07-29T13:35:01.575Z,43.28
2022-07-29T13:37:34.064Z,43.50
2022-07-29T13:40:00.956Z,42.97
2022-07-29T13:42:27.877Z,43.66
2022-07-29T13:44:54.809Z,43.40
2022-07-29T13:47:21.819Z,44.11
2022-07-29T13:49:48.990Z,43.95
2022-07-29T13:52:16.554Z,44.64
2022-07-29T13:54:43.908Z,44.27
2022-07-29T13:57:13.895Z,44.19
2022-07-29T13:59:43.983Z,43.90
2022-07-29T14:02:11.112Z,45.14
2022-07-29T14:04:39.479Z,44.20
2022-07-29T14:07:06.746Z,44.37
2022-07-29T14:09:41.009Z,44.07
2022-07-29T14:12:09.064Z,44.67
2022-07-29T14:14:37.453Z,45.21
2022-07-29T14:17:04.543Z,45.27
2022-07-29T14:19:33.333Z,45.44
2022-07-29T14:22:00.322Z,45.69
2022-07-29T14:24:27.480Z,46.08
2022-07-29T14:26:54.252Z,46.17
2022-07-29T14:29:21.031Z,45.99
2022-07-29T14:31:47.785Z,46.12
2022-07-29T14:34:16.536Z,46.22
2022-07-29T14:36:43.282Z,45.96
2022-07-29T14:39:09.903Z,46.29
2022-07-29T14:41:36.615Z,46.05
2022-07-29T14:44:03.464Z,45.95
2022-07-29T14:46:30.131Z,46.00
2022-07-29T14:48:56.901Z,46.36
2022-07-29T14:51:23.563Z,46.37
2022-07-29T14:53:58.971Z,47.18
2022-07-29T14:56:46.821Z,48.32
2022-07-29T14:59:12.279Z,47.70
2022-07-29T15:01:38.988Z,47.61
2022-07-29T15:04:05.712Z,47.65
2022-07-29T15:06:32.410Z,48.07
2022-07-29T15:08:59.045Z,48.41
2022-07-29T15:11:39.101Z,48.46
2022-07-29T15:14:06.854Z,47.90
2022-07-29T15:16:33.866Z,47.77
2022-07-29T15:19:01.155Z,48.17
2022-07-29T15:21:28.400Z,48.30
2022-07-29T15:23:55.009Z,48.37
2022-07-29T15:26:21.679Z,48.33
2022-07-29T15:28:48.905Z,48.55
2022-07-29T15:31:15.645Z,48.55
2022-07-29T15:33:42.312Z,48.89
2022-07-29T15:36:09.007Z,48.26
2022-07-29T15:38:35.799Z,48.72
2022-07-29T15:41:08.678Z,49.36
2022-07-29T15:43:36.251Z,49.68
2022-07-29T15:46:21.503Z,49.35
2022-07-29T15:48:48.389Z,48.96
2022-07-29T15:51:15.259Z,48.84
2022-07-29T15:53:41.976Z,48.75
2022-07-29T15:56:08.582Z,49.41
2022-07-29T15:58:35.193Z,48.82
2022-07-29T16:01:01.969Z,49.56
2022-07-29T16:03:29.619Z,49.10
2022-07-29T16:05:56.361Z,49.57
2022-07-29T16:08:23.155Z,49.42
2022-07-29T16:10:49.770Z,49.61
2022-07-29T16:13:16.998Z,49.77
2022-07-29T16:15:45.452Z,49.27
2022-07-29T16:18:30.149Z,49.76
2022-07-29T16:20:57.112Z,49.84
2022-07-29T16:23:24.761Z,49.96
2022-07-29T16:25:59.714Z,50.24
2022-07-29T16:28:27.897Z,49.97
2022-07-29T16:30:54.550Z,50.06
2022-07-29T16:33:21.342Z,50.09
2022-07-29T16:35:48.005Z,49.79
2022-07-29T16:38:14.706Z,49.98
2022-07-29T16:40:41.488Z,49.84
2022-07-29T16:43:08.318Z,49.77
2022-07-29T16:45:45.297Z,49.84
2022-07-29T16:48:17.918Z,49.50
2022-07-29T16:50:45.071Z,49.96
2022-07-29T16:53:11.682Z,50.15
2022-07-29T16:55:38.644Z,50.25
2022-07-29T16:58:09.271Z,50.63
2022-07-29T17:00:36.065Z,50.57
2022-07-29T17:03:02.731Z,50.99
2022-07-29T17:05:29.335Z,50.48
2022-07-29T17:07:57.522Z,50.63
2022-07-29T17:10:26.617Z,50.66
2022-07-29T17:12:54.637Z,51.04
2022-07-29T17:15:21.267Z,50.78
2022-07-29T17:17:55.174Z,50.59
2022-07-29T17:20:23.472Z,51.27
2022-07-29T17:22:50.397Z,51.33
2022-07-29T17:25:20.830Z,51.18
2022-07-29T17:27:49.686Z,51.67
2022-07-29T17:30:16.534Z,51.69
2022-07-29T17:32:43.153Z,51.87
2022-07-29T17:35:28.268Z,51.99
2022-07-29T17:37:54.891Z,52.47
2022-07-29T17:40:21.730Z,52.51
2022-07-29T17:42:48.413Z,52.90
2022-07-29T17:45:15.017Z,53.04
2022-07-29T17:47:41.912Z,53.42
2022-07-29T17:50:08.851Z,53.50
2022-07-29T17:52:35.522Z,53.89
2022-07-29T17:55:02.688Z,54.30
2022-07-29T17:57:33.400Z,54.53
2022-07-29T18:00:00.111Z,54.45
2022-07-29T18:02:27.128Z,54.67
2022-07-29T18:04:55.309Z,54.61
2022-07-29T18:07:22.054Z,55.30
2022-07-29T18:09:48.840Z,55.77
2022-07-29T18:12:15.580Z,56.85
2022-07-29T18:14:42.386Z,57.35
2022-07-29T18:17:09.022Z,57.42
2022-07-29T18:19:35.725Z,57.98
2022-07-29T18:22:05.167Z,58.87
2022-07-29T18:24:32.291Z,59.20
2022-07-29T18:26:59.149Z,58.89
2022-07-29T18:29:28.958Z,58.93
2022-07-29T18:31:55.880Z,59.51
2022-07-29T18:34:22.556Z,59.95
2022-07-29T18:36:49.204Z,60.32
2022-07-29T18:39:20.893Z,60.54
2022-07-29T18:41:50.615Z,61.89
2022-07-29T18:44:21.879Z,62.80
2022-07-29T18:46:49.586Z,63.30
2022-07-29T18:49:16.336Z,64.06
2022-07-29T18:51:43.001Z,64.30
2022-07-29T18:54:10.564Z,65.05
2022-07-29T18:56:37.345Z,64.92
2022-07-29T18:59:04.387Z,65.17
2022-07-29T19:01:31.681Z,65.55
2022-07-29T19:03:59.208Z,65.60
2022-07-29T19:06:35.084Z,65.64
2022-07-29T19:09:01.882Z,65.99
2022-07-29T19:11:28.554Z,66.60
2022-07-29T19:13:55.257Z,66.47
2022-07-29T19:16:22.064Z,66.85
2022-07-29T19:18:48.908Z,66.91
2022-07-29T19:21:15.634Z,66.91
2022-07-29T19:24:04.256Z,66.80
2022-07-29T19:26:30.928Z,66.53
2022-07-29T19:28:57.590Z,66.50
2022-07-29T19:31:25.811Z,66.23
2022-07-29T19:33:52.524Z,66.61
2022-07-29T19:36:19.179Z,66.26
2022-07-29T19:38:45.801Z,66.27
2022-07-29T19:41:13.223Z,66.19
2022-07-29T19:43:49.923Z,66.15
2022-07-29T19:46:22.997Z,66.00
2022-07-29T19:48:50.033Z,65.80
2022-07-29T19:51:17.088Z,65.65
2022-07-29T19:53:43.832Z,65.99
2022-07-29T19:56:10.490Z,66.18
2022-07-29T19:58:37.182Z,66.20
2022-07-29T20:01:10.240Z,65.99
2022-07-29T20:03:39.938Z,67.12
2022-07-29T20:06:07.545Z,66.97
2022-07-29T20:08:34.248Z,67.18
2022-07-29T20:11:00.902Z,67.01
2022-07-29T20:13:27.587Z,67.16
2022-07-29T20:15:54.342Z,67.17
2022-07-29T20:18:21.100Z,67.66
2022-07-29T20:20:49.620Z,68.12
2022-07-29T20:23:17.193Z,67.16
2022-07-29T20:25:44.443Z,67.20
2022-07-29T20:28:11.075Z,66.77
2022-07-29T20:30:38.581Z,65.42
2022-07-29T20:33:05.456Z,65.91
2022-07-29T20:35:32.071Z,65.79
2022-07-29T20:37:59.850Z,64.80
2022-07-29T20:40:27.332Z,63.92
2022-07-29T20:42:54.639Z,63.34
2022-07-29T20:45:21.853Z,63.17
2022-07-29T20:47:48.545Z,63.70
2022-07-29T20:50:15.497Z,63.32
2022-07-29T20:52:44.078Z,62.72
2022-07-29T20:55:10.810Z,62.61
2022-07-29T20:57:39.195Z,62.42
2022-07-29T21:00:07.211Z,62.09
2022-07-29T21:02:34.025Z,61.87
2022-07-29T21:05:00.977Z,61.95
2022-07-29T21:07:27.696Z,61.95
2022-07-29T21:10:02.722Z,62.04
2022-07-29T21:12:30.177Z,62.25
2022-07-29T21:14:57.837Z,62.08
2022-07-29T21:17:24.614Z,62.38
2022-07-29T21:19:53.342Z,62.23
2022-07-29T21:22:23.203Z,62.51
2022-07-29T21:24:50.026Z,62.49
2022-07-29T21:27:35.423Z,62.40
2022-07-29T21:30:06.446Z,62.55
2022-07-29T21:32:33.141Z,62.46
2022-07-29T21:34:59.994Z,62.52
2022-07-29T21:37:27.116Z,63.45
2022-07-29T21:39:53.740Z,64.47
2022-07-29T21:42:20.430Z,65.71
2022-07-29T21:44:47.120Z,66.56
2022-07-29T21:47:13.751Z,66.75
2022-07-29T21:49:40.365Z,67.28
2022-07-29T21:52:08.108Z,68.09
2022-07-29T21:54:35.767Z,68.77
2022-07-29T21:57:02.997Z,69.19
2022-07-29T21:59:30.027Z,70.13
2022-07-29T22:02:00.772Z,70.05
2022-07-29T22:04:28.677Z,70.25
2022-07-29T22:06:55.774Z,70.39
2022-07-29T22:09:22.391Z,70.78
2022-07-29T22:11:49.086Z,71.09
2022-07-29T22:14:17.751Z,71.23
2022-07-29T22:16:45.679Z,70.99
2022-07-29T22:19:12.849Z,70.82
2022-07-29T22:21:39.984Z,71.47
2022-07-29T22:24:07.132Z,71.68
2022-07-29T22:26:36.215Z,71.71
2022-07-29T22:29:02.834Z,71.99
2022-07-29T22:31:29.478Z,72.28
2022-07-29T22:33:56.111Z,72.41
2022-07-29T22:36:22.866Z,72.80
2022-07-29T22:38:52.005Z,72.86
2022-07-29T22:41:18.857Z,72.85
2022-07-29T22:43:45.501Z,73.30
2022-07-29T22:46:12.233Z,74.11
2022-07-29T22:48:39.018Z,74.39
2022-07-29T22:51:05.809Z,73.90
2022-07-29T22:53:32.530Z,74.17
2022-07-29T22:55:59.190Z,74.04
2022-07-29T22:58:25.871Z,74.17
2022-07-29T23:00:52.672Z,71.57
2022-07-29T23:03:19.514Z,70.92
2022-07-29T23:05:46.216Z,71.53
2022-07-29T23:08:12.958Z,71.87
2022-07-29T23:10:39.607Z,71.59
2022-07-29T23:13:06.362Z,71.31
2022-07-29T23:15:32.992Z,70.67
2022-07-29T23:17:59.633Z,70.61
2022-07-29T23:20:26.480Z,69.88
2022-07-29T23:22:53.099Z,69.39
2022-07-29T23:25:19.784Z,69.64
2022-07-29T23:27:46.442Z,69.90
2022-07-29T23:30:13.198Z,70.25
2022-07-29T23:32:39.870Z,70.39
2022-07-29T23:35:07.426Z,70.48
2022-07-29T23:37:34.522Z,70.42
2022-07-29T23:40:01.159Z,70.68
2022-07-29T23:42:27.972Z,70.49
2022-07-29T23:44:54.620Z,71.13
2022-07-29T23:47:21.318Z,71.28
2022-07-29T23:49:50.048Z,73.11
2022-07-29T23:52:17.422Z,73.07
2022-07-29T23:54:44.072Z,72.92
2022-07-29T23:57:10.851Z,73.26
2022-07-29T23:59:37.546Z,73.43
